createdAt,value
2022-08-30T00:00:56.735Z,21.95
2022-08-30T00:04:00.453Z,22.00
2022-08-30T00:07:03.782Z,22.03
2022-08-30T00:10:07.087Z,22.07
2022-08-30T00:13:12.243Z,22.08
2022-08-30T00:16:14.846Z,22.09
2022-08-30T00:19:17.102Z,22.06
2022-08-30T00:22:19.516Z,22.04
2022-08-30T00:25:22.714Z,21.99
2022-08-30T00:28:26.231Z,21.96
2022-08-30T00:31:28.419Z,21.93
2022-08-30T00:34:31.617Z,21.92
2022-08-30T00:37:33.930Z,21.84
2022-08-30T00:40:37.853Z,21.86
2022-08-30T00:43:40.056Z,21.81
2022-08-30T00:46:42.837Z,21.75
2022-08-30T00:49:52.668Z,21.74
2022-08-30T00:52:59.984Z,21.72
2022-08-30T00:56:03.327Z,21.66
2022-08-30T00:59:07.667Z,21.60
2022-08-30T01:02:10.431Z,21.52
2022-08-30T01:05:15.997Z,21.48
2022-08-30T01:08:20.410Z,21.41
2022-08-30T01:11:24.632Z,21.38
2022-08-30T01:14:27.681Z,21.35
2022-08-30T01:17:30.506Z,21.27
2022-08-30T01:21:01.305Z,21.22
2022-08-30T01:24:05.470Z,21.11
2022-08-30T01:27:07.613Z,21.04
2022-08-30T01:30:11.117Z,20.98
2022-08-30T01:33:13.337Z,20.96
2022-08-30T01:36:17.265Z,20.94
2022-08-30T01:39:19.478Z,20.91
2022-08-30T01:42:23.179Z,20.92
2022-08-30T01:45:25.787Z,20.85
2022-08-30T01:48:31.054Z,20.82
2022-08-30T01:51:33.760Z,20.83
2022-08-30T01:54:40.076Z,20.79
2022-08-30T01:57:42.301Z,20.79
2022-08-30T02:00:45.239Z,20.73
2022-08-30T02:03:48.392Z,20.68
2022-08-30T02:06:51.240Z,20.64
2022-08-30T02:09:53.875Z,20.61
2022-08-30T02:12:56.538Z,20.59
2022-08-30T02:16:01.217Z,20.53
2022-08-30T02:19:03.711Z,20.47
2022-08-30T02:22:07.063Z,20.47
2022-08-30T02:25:11.219Z,20.45
2022-08-30T02:28:23.594Z,20.34
2022-08-30T02:31:27.119Z,20.31
2022-08-30T02:34:29.445Z,20.22
2022-08-30T02:37:31.835Z,20.19
2022-08-30T02:40:34.642Z,20.18
2022-08-30T02:43:39.699Z,20.19
2022-08-30T02:46:41.943Z,20.15
2022-08-30T02:49:44.394Z,20.17
2022-08-30T02:52:48.276Z,20.14
2022-08-30T02:55:50.923Z,20.13
2022-08-30T02:58:53.632Z,20.18
2022-08-30T03:01:56.070Z,20.22
2022-08-30T03:04:58.709Z,20.17
2022-08-30T03:08:01.329Z,20.11
2022-08-30T03:11:05.111Z,20.06
2022-08-30T03:14:07.729Z,20.07
2022-08-30T03:17:12.741Z,20.04
2022-08-30T03:20:18.470Z,20.04
2022-08-30T03:23:21.593Z,20.02
2022-08-30T03:26:24.367Z,19.98
2022-08-30T03:29:26.541Z,20.00
2022-08-30T03:32:30.991Z,19.97
2022-08-30T03:35:33.336Z,19.96
2022-08-30T03:38:36.091Z,19.88
2022-08-30T03:41:38.776Z,19.83
2022-08-30T03:44:41.764Z,19.78
2022-08-30T03:47:44.440Z,19.80
2022-08-30T03:50:46.925Z,19.85
2022-08-30T03:53:49.842Z,19.85
2022-08-30T03:56:52.517Z,19.85
2022-08-30T03:59:54.729Z,19.86
2022-08-30T04:02:57.205Z,19.75
2022-08-30T04:06:00.936Z,19.60
2022-08-30T04:09:04.897Z,19.58
2022-08-30T04:12:07.644Z,19.57
2022-08-30T04:15:11.284Z,19.50
2022-08-30T04:18:13.914Z,19.54
2022-08-30T04:21:17.034Z,19.58
2022-08-30T04:24:19.504Z,19.54
2022-08-30T04:27:21.718Z,19.56
2022-08-30T04:30:25.588Z,19.63
2022-08-30T04:33:28.421Z,19.58
2022-08-30T04:36:30.836Z,20.04
2022-08-30T04:39:33.160Z,20.43
2022-08-30T04:42:38.630Z,20.59
2022-08-30T04:45:41.552Z,20.88
2022-08-30T04:48:45.043Z,21.32
2022-08-30T04:51:47.259Z,21.34
2022-08-30T04:54:57.391Z,21.52
2022-08-30T04:58:00.749Z,21.65
2022-08-30T05:01:03.848Z,21.87
2022-08-30T05:04:07.182Z,22.33
2022-08-30T05:07:09.645Z,23.17
2022-08-30T05:10:11.934Z,24.47
2022-08-30T05:13:16.972Z,25.93
2022-08-30T05:16:19.807Z,26.95
2022-08-30T05:19:23.508Z,27.30
2022-08-30T05:22:25.883Z,26.81
2022-08-30T05:25:36.103Z,25.86
2022-08-30T05:28:38.477Z,24.94
2022-08-30T05:31:41.120Z,24.15
2022-08-30T05:34:46.286Z,23.76
2022-08-30T05:37:48.753Z,23.84
2022-08-30T05:40:50.914Z,24.04
2022-08-30T05:43:56.120Z,24.24
2022-08-30T05:46:58.319Z,24.72
2022-08-30T05:50:00.729Z,25.15
2022-08-30T05:53:02.935Z,24.94
2022-08-30T05:56:09.599Z,24.76
2022-08-30T05:59:12.955Z,24.59
2022-08-30T06:02:15.400Z,24.43
2022-08-30T06:05:17.991Z,24.34
2022-08-30T06:08:20.717Z,24.26
2022-08-30T06:11:25.352Z,24.22
2022-08-30T06:14:28.775Z,24.37
2022-08-30T06:17:31.320Z,25.63
2022-08-30T06:20:33.532Z,26.00
2022-08-30T06:23:36.006Z,26.44
2022-08-30T06:26:41.518Z,28.40
2022-08-30T06:29:44.021Z,30.65
2022-08-30T06:32:46.255Z,29.99
2022-08-30T06:35:58.316Z,28.92
2022-08-30T06:39:02.028Z,28.52
2022-08-30T06:42:05.315Z,27.65
2022-08-30T06:45:10.426Z,27.33
2022-08-30T06:48:15.383Z,27.26
2022-08-30T06:51:28.809Z,27.35
2022-08-30T06:54:34.437Z,27.80
2022-08-30T06:57:36.893Z,30.60
2022-08-30T07:00:41.793Z,32.23
2022-08-30T07:03:44.659Z,32.50
2022-08-30T07:06:47.143Z,32.89
2022-08-30T07:09:52.931Z,34.96
2022-08-30T07:12:55.444Z,36.06
2022-08-30T07:15:58.030Z,35.73
2022-08-30T07:19:02.846Z,33.73
2022-08-30T07:22:06.188Z,32.96
2022-08-30T07:25:10.301Z,33.18
2022-08-30T07:28:13.076Z,34.57
2022-08-30T07:31:19.940Z,35.67
2022-08-30T07:34:23.412Z,36.44
2022-08-30T07:37:28.058Z,36.51
2022-08-30T07:40:30.819Z,35.00
2022-08-30T07:43:34.604Z,33.64
2022-08-30T07:46:41.460Z,32.53
2022-08-30T07:49:44.819Z,31.16
2022-08-30T07:52:47.184Z,30.52
2022-08-30T07:55:49.752Z,29.72
2022-08-30T07:58:52.723Z,29.60
2022-08-30T08:01:55.245Z,29.35
2022-08-30T08:04:57.739Z,28.96
2022-08-30T08:07:59.853Z,28.98
2022-08-30T08:11:16.583Z,28.73
2022-08-30T08:14:18.907Z,28.67
2022-08-30T08:17:21.359Z,29.04
2022-08-30T08:20:24.947Z,29.04
2022-08-30T08:23:28.117Z,29.02
2022-08-30T08:26:30.284Z,29.17
2022-08-30T08:29:33.113Z,29.24
2022-08-30T08:32:35.344Z,29.41
2022-08-30T08:35:37.743Z,29.50
2022-08-30T08:38:39.990Z,29.48
2022-08-30T08:41:54.428Z,29.33
2022-08-30T08:45:14.541Z,29.79
2022-08-30T08:48:45.619Z,29.62
2022-08-30T08:52:14.040Z,29.52
2022-08-30T08:55:20.927Z,29.23
2022-08-30T08:58:26.710Z,29.27
2022-08-30T09:01:30.869Z,29.31
2022-08-30T09:04:36.458Z,29.31
2022-08-30T09:07:43.881Z,29.57
2022-08-30T09:10:58.400Z,29.93
2022-08-30T09:14:01.314Z,30.07
2022-08-30T09:17:10.186Z,30.12
2022-08-30T09:20:12.617Z,30.08
2022-08-30T09:23:28.327Z,30.27
2022-08-30T09:26:36.547Z,29.79
2022-08-30T09:29:50.597Z,30.04
2022-08-30T09:32:55.085Z,29.96
2022-08-30T09:36:09.135Z,29.78
2022-08-30T09:39:34.448Z,29.95
2022-08-30T09:42:37.233Z,29.91
2022-08-30T09:45:43.138Z,29.96
2022-08-30T09:48:46.119Z,30.13
2022-08-30T09:51:55.217Z,30.04
2022-08-30T09:55:32.229Z,30.28
2022-08-30T09:59:07.336Z,30.36
2022-08-30T10:02:28.439Z,29.67
2022-08-30T10:05:54.314Z,29.41
2022-08-30T10:09:09.152Z,29.05
2022-08-30T10:12:36.171Z,29.20
2022-08-30T10:15:51.579Z,29.17
2022-08-30T10:19:02.800Z,28.96
2022-08-30T10:22:28.115Z,29.02
2022-08-30T10:25:43.986Z,29.13
2022-08-30T10:28:50.465Z,28.97
2022-08-30T10:32:15.021Z,28.63
2022-08-30T10:35:24.867Z,28.33
2022-08-30T10:38:37.092Z,28.14
2022-08-30T10:42:00.196Z,27.91
2022-08-30T10:45:12.117Z,27.73
2022-08-30T10:48:32.500Z,27.97
2022-08-30T10:51:44.808Z,28.10
2022-08-30T10:55:09.738Z,28.15
2022-08-30T10:58:15.829Z,28.43
2022-08-30T11:01:28.297Z,28.40
2022-08-30T11:05:01.359Z,28.54
2022-08-30T11:08:25.660Z,28.89
2022-08-30T11:11:50.518Z,29.10
2022-08-30T11:14:53.806Z,29.05
2022-08-30T11:17:58.658Z,28.77
2022-08-30T11:21:39.907Z,28.76
2022-08-30T11:24:57.633Z,28.88
2022-08-30T11:27:59.818Z,29.15
2022-08-30T11:31:11.711Z,29.30
2022-08-30T11:34:46.761Z,29.44
2022-08-30T11:37:49.465Z,29.34
2022-08-30T11:41:10.665Z,29.29
2022-08-30T11:44:22.783Z,29.05
2022-08-30T11:47:54.362Z,28.81
2022-08-30T11:51:12.952Z,29.26
2022-08-30T11:54:39.407Z,29.38
2022-08-30T11:57:52.658Z,29.65
2022-08-30T12:01:50.838Z,29.64
2022-08-30T12:04:50.058Z,29.76
2022-08-30T12:08:00.877Z,29.90
2022-08-30T12:11:09.040Z,30.18
2022-08-30T12:14:32.267Z,30.20
2022-08-30T12:18:05.526Z,30.17
2022-08-30T12:21:28.759Z,29.99
2022-08-30T12:24:40.691Z,29.54
2022-08-30T12:27:55.530Z,29.64
2022-08-30T12:31:16.794Z,29.78
2022-08-30T12:38:01.758Z,29.89
2022-08-30T12:41:05.818Z,29.91
2022-08-30T12:44:20.843Z,30.04
2022-08-30T12:47:46.231Z,30.13
2022-08-30T12:50:53.680Z,30.34
2022-08-30T12:54:05.904Z,30.38
2022-08-30T12:57:38.271Z,30.10
2022-08-30T13:00:43.031Z,30.10
2022-08-30T13:04:28.756Z,30.27
2022-08-30T13:07:36.109Z,30.51
2022-08-30T13:10:50.188Z,30.48
2022-08-30T13:13:54.946Z,30.55
2022-08-30T13:17:24.434Z,30.66
2022-08-30T13:20:26.606Z,30.47
2022-08-30T13:23:29.141Z,30.39
2022-08-30T13:26:37.728Z,30.15
2022-08-30T13:29:42.456Z,29.90
2022-08-30T13:32:45.690Z,29.93
2022-08-30T13:35:48.162Z,30.08
2022-08-30T13:38:51.084Z,30.27
2022-08-30T13:41:54.630Z,30.30
2022-08-30T13:44:58.642Z,30.49
2022-08-30T13:48:01.558Z,30.59
2022-08-30T13:51:04.181Z,30.64
2022-08-30T13:54:06.895Z,30.68
2022-08-30T13:57:09.804Z,30.56
2022-08-30T14:00:19.363Z,30.50
2022-08-30T14:03:22.349Z,30.36
2022-08-30T14:06:33.677Z,30.26
2022-08-30T14:09:36.799Z,30.26
2022-08-30T14:12:58.857Z,30.09
2022-08-30T14:19:28.383Z,29.62
2022-08-30T14:22:30.962Z,29.50
2022-08-30T14:25:34.117Z,29.48
2022-08-30T14:28:36.572Z,29.28
2022-08-30T14:31:40.354Z,29.07
2022-08-30T14:34:43.106Z,28.89
2022-08-30T14:37:45.636Z,28.77
2022-08-30T14:40:48.186Z,28.58
2022-08-30T14:43:51.212Z,28.44
2022-08-30T14:46:54.359Z,28.37
2022-08-30T14:49:59.014Z,28.27
2022-08-30T14:53:01.490Z,28.27
2022-08-30T14:56:09.344Z,28.25
2022-08-30T14:59:12.154Z,28.24
2022-08-30T15:02:15.577Z,28.19
2022-08-30T15:05:18.180Z,28.18
2022-08-30T15:08:22.318Z,28.16
2022-08-30T15:11:29.672Z,28.13
2022-08-30T15:14:32.592Z,28.07
2022-08-30T15:17:35.002Z,27.91
2022-08-30T15:20:37.804Z,27.84
2022-08-30T15:23:40.931Z,27.76
2022-08-30T15:26:44.101Z,27.71
2022-08-30T15:29:46.524Z,27.70
2022-08-30T15:32:49.338Z,27.66
2022-08-30T15:35:52.360Z,27.66
2022-08-30T15:38:55.785Z,27.65
2022-08-30T15:42:01.163Z,27.56
2022-08-30T15:45:04.207Z,27.35
2022-08-30T15:48:09.873Z,27.32
2022-08-30T15:51:12.843Z,27.35
2022-08-30T15:54:20.310Z,27.45
2022-08-30T15:57:23.471Z,27.61
2022-08-30T16:00:26.495Z,27.77
2022-08-30T16:03:28.926Z,27.86
2022-08-30T16:06:37.145Z,27.99
2022-08-30T16:09:40.578Z,28.13
2022-08-30T16:12:43.649Z,28.17
2022-08-30T16:15:46.125Z,28.23
2022-08-30T16:18:54.233Z,28.21
2022-08-30T16:21:58.549Z,28.17
2022-08-30T16:25:00.728Z,28.08
2022-08-30T16:28:04.214Z,27.90
2022-08-30T16:31:07.792Z,27.77
2022-08-30T16:34:11.471Z,27.71
2022-08-30T16:37:13.619Z,27.69
2022-08-30T16:40:16.065Z,27.64
2022-08-30T16:43:19.748Z,27.59
2022-08-30T16:46:27.132Z,27.55
2022-08-30T16:49:30.177Z,27.50
2022-08-30T16:52:32.669Z,27.42
2022-08-30T16:55:38.463Z,27.36
2022-08-30T16:58:42.190Z,27.29
2022-08-30T17:01:44.941Z,27.27
2022-08-30T17:04:52.315Z,27.26
2022-08-30T17:07:55.041Z,27.22
2022-08-30T17:10:58.102Z,27.26
2022-08-30T17:14:01.572Z,27.21
2022-08-30T17:17:04.444Z,27.08
2022-08-30T17:20:08.482Z,26.95
2022-08-30T17:23:11.276Z,26.83
2022-08-30T17:26:13.634Z,26.70
2022-08-30T17:29:16.125Z,26.61
2022-08-30T17:32:18.373Z,26.51
2022-08-30T17:35:21.163Z,26.35
2022-08-30T17:38:23.496Z,26.26
2022-08-30T17:41:26.194Z,26.12
2022-08-30T17:44:33.209Z,26.00
2022-08-30T17:47:36.690Z,25.96
2022-08-30T17:50:38.938Z,25.81
2022-08-30T17:53:41.375Z,25.70
2022-08-30T17:56:44.266Z,25.60
2022-08-30T17:59:46.818Z,25.46
2022-08-30T18:02:49.615Z,25.31
2022-08-30T18:05:52.797Z,25.16
2022-08-30T18:08:54.943Z,25.01
2022-08-30T18:11:57.501Z,24.92
2022-08-30T18:14:59.941Z,24.83
2022-08-30T18:18:04.278Z,24.79
2022-08-30T18:21:13.913Z,24.65
2022-08-30T18:24:16.854Z,24.50
2022-08-30T18:27:18.968Z,24.46
2022-08-30T18:30:21.676Z,24.35
2022-08-30T18:33:25.346Z,24.28
2022-08-30T18:36:28.250Z,24.23
2022-08-30T18:39:34.743Z,24.17
2022-08-30T18:42:38.019Z,24.09
2022-08-30T18:45:44.558Z,24.08
2022-08-30T18:48:48.679Z,24.06
2022-08-30T18:51:51.233Z,24.04
2022-08-30T18:54:54.342Z,23.98
2022-08-30T18:58:02.472Z,23.95
2022-08-30T19:01:05.284Z,23.85
2022-08-30T19:04:07.821Z,23.74
2022-08-30T19:07:12.883Z,23.65
2022-08-30T19:10:20.969Z,23.56
2022-08-30T19:13:23.704Z,23.47
2022-08-30T19:16:26.223Z,23.37
2022-08-30T19:19:28.690Z,23.29
2022-08-30T19:22:50.223Z,23.19
2022-08-30T19:25:54.916Z,23.15
2022-08-30T19:28:57.455Z,23.04
2022-08-30T19:31:59.959Z,23.02
2022-08-30T19:35:02.083Z,22.95
2022-08-30T19:38:05.093Z,22.93
2022-08-30T19:41:07.699Z,22.90
2022-08-30T19:44:10.645Z,22.85
2022-08-30T19:47:13.176Z,22.84
2022-08-30T19:50:16.987Z,22.76
2022-08-30T19:53:19.518Z,22.70
2022-08-30T19:56:23.445Z,22.67
2022-08-30T19:59:25.586Z,22.57
2022-08-30T20:02:28.077Z,22.51
2022-08-30T20:05:32.543Z,22.52
2022-08-30T20:08:35.038Z,22.51
2022-08-30T20:11:38.851Z,22.50
2022-08-30T20:14:42.729Z,22.50
2022-08-30T20:18:03.403Z,22.40
2022-08-30T20:21:13.459Z,22.29
2022-08-30T20:24:16.308Z,22.18
2022-08-30T20:27:18.569Z,22.20
2022-08-30T20:30:21.951Z,22.02
2022-08-30T20:33:25.034Z,21.92
2022-08-30T20:36:27.419Z,21.89
2022-08-30T20:39:29.726Z,21.87
2022-08-30T20:42:32.225Z,21.83
2022-08-30T20:45:34.575Z,21.77
2022-08-30T20:48:38.129Z,21.69
2022-08-30T20:51:40.957Z,21.67
2022-08-30T20:54:44.331Z,21.68
2022-08-30T20:57:46.519Z,21.67
2022-08-30T21:00:50.682Z,21.60
2022-08-30T21:03:53.094Z,21.59
2022-08-30T21:06:56.007Z,21.51
2022-08-30T21:09:58.635Z,21.43
2022-08-30T21:13:01.169Z,21.33
2022-08-30T21:16:03.951Z,21.29
2022-08-30T21:19:06.639Z,21.25
2022-08-30T21:22:08.979Z,21.22
2022-08-30T21:25:11.411Z,21.17
2022-08-30T21:28:13.612Z,21.07
2022-08-30T21:31:19.463Z,20.83
2022-08-30T21:34:21.877Z,20.89
2022-08-30T21:37:24.412Z,20.85
2022-08-30T21:40:27.293Z,20.83
2022-08-30T21:43:29.803Z,20.86
2022-08-30T21:46:33.549Z,20.77
2022-08-30T21:49:36.823Z,20.66
2022-08-30T21:52:39.005Z,20.68
2022-08-30T21:55:41.378Z,20.66
2022-08-30T21:58:46.150Z,20.68
2022-08-30T22:01:49.646Z,20.73
2022-08-30T22:04:52.207Z,20.74
2022-08-30T22:07:54.347Z,20.77
2022-08-30T22:10:56.755Z,20.78
2022-08-30T22:13:59.185Z,20.64
2022-08-30T22:17:03.510Z,20.60
2022-08-30T22:20:06.478Z,20.67
2022-08-30T22:23:10.082Z,20.62
2022-08-30T22:26:14.431Z,20.52
2022-08-30T22:29:16.957Z,20.48
2022-08-30T22:32:19.199Z,20.35
2022-08-30T22:35:21.740Z,20.41
2022-08-30T22:38:24.550Z,20.37
2022-08-30T22:41:31.477Z,20.38
2022-08-30T22:44:33.813Z,20.17
2022-08-30T22:47:36.278Z,20.19
2022-08-30T22:50:38.848Z,20.22
2022-08-30T22:53:41.435Z,20.11
2022-08-30T22:56:43.722Z,20.18
2022-08-30T22:59:46.175Z,20.22
2022-08-30T23:02:50.322Z,20.13
2022-08-30T23:05:52.813Z,20.00
2022-08-30T23:08:55.024Z,19.96
2022-08-30T23:11:57.851Z,19.87
2022-08-30T23:14:59.960Z,19.85
2022-08-30T23:18:02.970Z,19.81
2022-08-30T23:21:12.464Z,19.74
2022-08-30T23:24:33.455Z,19.76
2022-08-30T23:27:54.149Z,19.78
2022-08-30T23:31:16.375Z,19.80
2022-08-30T23:34:37.297Z,19.78
2022-08-30T23:37:58.742Z,19.68
2022-08-30T23:41:19.739Z,19.73
2022-08-30T23:44:40.557Z,19.79
2022-08-30T23:48:01.540Z,19.82
2022-08-30T23:51:23.338Z,19.64
2022-08-30T23:54:44.248Z,19.67
2022-08-30T23:58:05.033Z,19.65
